Hovedside
METAR-TAF:

METAR-TAF

Lufthavner :

Amman, Jordan

breddegrad: 31-59N, lengdegrad: 035-59E, høyde over havet: 767 m

Gjeldene værobservasjon

Denne rapporten ble laget for 1 time og 3 minutter siden, klokken 15:00 UTC
Vind 6 kt fra Øst
Temperatur 14°C
Luftfuktighet 23%
Trykk 1021 hPa
Sikt: 6000 m

METAR: OJAM 201500Z 10006KT 6000 NSC 14/M07 Q1021 NOSIG

Tid: 18:03 (16:03 UTC)

Varsel

Denne rapporten ble laget for 5 timer og 3 minutter siden, klokken 11:00 UTC
Varsel gyldig fra 20. klokken 12 UTC til 21. klokken 18 UTC
Vind 10 kt fra Sørøst
Sikt: 6000 m
Midlertidig
fra 20. klokken 12 UTC til 20. klokken 18 UTC
Sikt: 5000 m
dis
Midlertidig
fra 21. klokken 02 UTC til 21. klokken 06 UTC
Sikt: 4000 m
dis

TAF: OJAM 201100Z 2012/2118 13010KT 6000 NSC TEMPO 2012/2018 5000 HZ TEMPO 2102/2106 4000 HZ

Værobservasjoner og værvarsel for over 4000 flyplasser (METAR- og TAF-rapporter).

Tilgjengelige stasjoner er representert av de røde og gule prikkene på kartet.

Hold musepekeren over prikken for å se navnet på stasjonen.

Klikk så for å se værobservasjoner og -varsler.

For å forandre kartet kan du klikke på den grønne knappen med svart kryss for å zoome inn, på den grønne knappen med strek for å zoome ut, eller på de grønne pilene for å se tilstøtende kart.


METAR-TAF: